sensor_id;sensor_type;location;lat;lon;timestamp;pressure;altitude;pressure_sealevel;temperature;humidity
29247;BME280;16272;48.188;9.964;2022-09-09T00:03:42;95552.44;;;15.86;64.96
29247;BME280;16272;48.188;9.964;2022-09-09T00:06:15;95552.25;;;16.09;63.12
29247;BME280;16272;48.188;9.964;2022-09-09T00:09:21;95554.09;;;16.58;60.86
29247;BME280;16272;48.188;9.964;2022-09-09T00:12:02;95556.72;;;15.65;64.91
29247;BME280;16272;48.188;9.964;2022-09-09T00:14:56;95545.34;;;16.21;62.07
29247;BME280;16272;48.188;9.964;2022-09-09T00:17:56;95545.44;;;16.34;62.75
29247;BME280;16272;48.188;9.964;2022-09-09T00:20:37;95547.72;;;15.51;65.30
29247;BME280;16272;48.188;9.964;2022-09-09T00:23:23;95549.34;;;15.16;66.38
29247;BME280;16272;48.188;9.964;2022-09-09T00:28:46;95546.91;;;15.36;65.64
29247;BME280;16272;48.188;9.964;2022-09-09T00:31:18;95547.66;;;16.03;63.87
29247;BME280;16272;48.188;9.964;2022-09-09T00:33:46;95545.50;;;15.91;63.49
29247;BME280;16272;48.188;9.964;2022-09-09T00:36:15;95549.91;;;15.11;66.12
29247;BME280;16272;48.188;9.964;2022-09-09T00:38:49;95551.34;;;15.80;64.03
29247;BME280;16272;48.188;9.964;2022-09-09T00:44:03;95558.50;;;15.94;63.39
29247;BME280;16272;48.188;9.964;2022-09-09T00:55:07;95551.16;;;15.82;63.14
29247;BME280;16272;48.188;9.964;2022-09-09T00:57:37;95548.53;;;15.88;63.31
29247;BME280;16272;48.188;9.964;2022-09-09T01:11:24;95538.91;;;15.57;63.77
29247;BME280;16272;48.188;9.964;2022-09-09T01:13:58;95545.38;;;14.82;66.53
29247;BME280;16272;48.188;9.964;2022-09-09T01:16:26;95539.84;;;14.98;66.35
29247;BME280;16272;48.188;9.964;2022-09-09T01:18:55;95545.97;;;14.39;68.52
29247;BME280;16272;48.188;9.964;2022-09-09T01:24:19;95529.13;;;14.39;68.33
29247;BME280;16272;48.188;9.964;2022-09-09T01:26:48;95531.72;;;15.21;65.92
29247;BME280;16272;48.188;9.964;2022-09-09T01:29:18;95521.72;;;15.67;63.18
29247;BME280;16272;48.188;9.964;2022-09-09T01:35:15;95518.66;;;14.97;66.00
29247;BME280;16272;48.188;9.964;2022-09-09T01:37:44;95521.78;;;14.70;66.56
29247;BME280;16272;48.188;9.964;2022-09-09T01:40:09;95525.09;;;14.58;67.39
29247;BME280;16272;48.188;9.964;2022-09-09T01:42:34;95518.09;;;14.86;66.55
29247;BME280;16272;48.188;9.964;2022-09-09T01:45:00;95517.00;;;15.47;64.22
29247;BME280;16272;48.188;9.964;2022-09-09T01:47:25;95501.25;;;15.37;64.69
29247;BME280;16272;48.188;9.964;2022-09-09T01:49:51;95509.97;;;15.46;62.98
29247;BME280;16272;48.188;9.964;2022-09-09T01:52:16;95504.25;;;15.49;63.23
29247;BME280;16272;48.188;9.964;2022-09-09T01:54:41;95497.84;;;15.29;64.29
29247;BME280;16272;48.188;9.964;2022-09-09T02:00:00;95497.41;;;16.05;61.49
29247;BME280;16272;48.188;9.964;2022-09-09T02:02:27;95500.69;;;15.63;62.19
29247;BME280;16272;48.188;9.964;2022-09-09T02:07:48;95501.69;;;15.62;62.88
29247;BME280;16272;48.188;9.964;2022-09-09T02:10:17;95500.56;;;15.72;61.12
29247;BME280;16272;48.188;9.964;2022-09-09T02:12:48;95503.78;;;15.09;64.58
29247;BME280;16272;48.188;9.964;2022-09-09T02:15:20;95502.25;;;15.73;62.08
29247;BME280;16272;48.188;9.964;2022-09-09T02:17:49;95495.91;;;14.71;65.59
29247;BME280;16272;48.188;9.964;2022-09-09T02:20:18;95504.91;;;15.00;65.61
29247;BME280;16272;48.188;9.964;2022-09-09T02:22:45;95506.06;;;16.07;61.01
29247;BME280;16272;48.188;9.964;2022-09-09T02:25:14;95498.31;;;15.32;64.09
29247;BME280;16272;48.188;9.964;2022-09-09T02:27:45;95502.22;;;15.51;62.51
29247;BME280;16272;48.188;9.964;2022-09-09T02:30:12;95489.50;;;14.87;65.31
29247;BME280;16272;48.188;9.964;2022-09-09T02:32:39;95500.25;;;15.60;63.33
29247;BME280;16272;48.188;9.964;2022-09-09T02:35:09;95498.03;;;14.91;64.42
29247;BME280;16272;48.188;9.964;2022-09-09T02:37:38;95504.38;;;14.89;63.75
29247;BME280;16272;48.188;9.964;2022-09-09T02:40:06;95503.38;;;13.85;68.54
29247;BME280;16272;48.188;9.964;2022-09-09T02:42:39;95504.25;;;15.13;63.74
29247;BME280;16272;48.188;9.964;2022-09-09T02:45:05;95505.88;;;14.24;67.55
29247;BME280;16272;48.188;9.964;2022-09-09T02:47:35;95507.19;;;15.18;63.52
29247;BME280;16272;48.188;9.964;2022-09-09T02:50:16;95525.13;;;15.39;63.07
29247;BME280;16272;48.188;9.964;2022-09-09T02:55:39;95516.03;;;14.59;66.15
29247;BME280;16272;48.188;9.964;2022-09-09T02:58:10;95520.16;;;14.84;65.89
29247;BME280;16272;48.188;9.964;2022-09-09T03:00:39;95524.16;;;15.25;64.92
29247;BME280;16272;48.188;9.964;2022-09-09T03:03:06;95515.34;;;15.83;63.32
29247;BME280;16272;48.188;9.964;2022-09-09T03:05:31;95517.56;;;14.91;65.63
29247;BME280;16272;48.188;9.964;2022-09-09T03:07:57;95511.78;;;15.60;63.19
29247;BME280;16272;48.188;9.964;2022-09-09T03:10:23;95514.97;;;14.83;64.79
29247;BME280;16272;48.188;9.964;2022-09-09T03:12:48;95528.00;;;15.37;64.54
29247;BME280;16272;48.188;9.964;2022-09-09T03:15:14;95519.03;;;15.45;63.53
29247;BME280;16272;48.188;9.964;2022-09-09T03:17:40;95536.44;;;15.56;63.46
29247;BME280;16272;48.188;9.964;2022-09-09T03:20:06;95535.41;;;15.20;64.92
29247;BME280;16272;48.188;9.964;2022-09-09T03:22:33;95538.84;;;15.51;64.78
29247;BME280;16272;48.188;9.964;2022-09-09T03:24:59;95527.41;;;15.20;66.00
29247;BME280;16272;48.188;9.964;2022-09-09T03:27:24;95532.06;;;15.70;64.79
29247;BME280;16272;48.188;9.964;2022-09-09T03:29:49;95525.34;;;15.95;63.20
29247;BME280;16272;48.188;9.964;2022-09-09T03:32:18;95528.88;;;15.59;64.90
29247;BME280;16272;48.188;9.964;2022-09-09T03:34:44;95535.25;;;16.45;61.60
29247;BME280;16272;48.188;9.964;2022-09-09T03:37:10;95532.97;;;15.40;65.46
29247;BME280;16272;48.188;9.964;2022-09-09T03:39:35;95532.94;;;16.42;62.05
29247;BME280;16272;48.188;9.964;2022-09-09T03:42:01;95539.00;;;16.01;63.73
29247;BME280;16272;48.188;9.964;2022-09-09T03:44:29;95544.53;;;15.77;64.98
29247;BME280;16272;48.188;9.964;2022-09-09T03:46:55;95534.69;;;16.28;63.11
29247;BME280;16272;48.188;9.964;2022-09-09T03:49:20;95527.97;;;15.74;64.64
29247;BME280;16272;48.188;9.964;2022-09-09T03:51:47;95531.38;;;16.54;62.79
29247;BME280;16272;48.188;9.964;2022-09-09T03:54:12;95543.59;;;15.70;64.77
29247;BME280;16272;48.188;9.964;2022-09-09T03:56:38;95530.59;;;16.60;63.01
29247;BME280;16272;48.188;9.964;2022-09-09T03:59:03;95527.38;;;15.93;64.39
29247;BME280;16272;48.188;9.964;2022-09-09T04:01:29;95527.09;;;16.60;62.48
29247;BME280;16272;48.188;9.964;2022-09-09T04:03:54;95525.56;;;16.79;62.38
29247;BME280;16272;48.188;9.964;2022-09-09T04:06:23;95525.47;;;16.09;64.19
29247;BME280;16272;48.188;9.964;2022-09-09T04:08:49;95529.00;;;16.94;61.68
29247;BME280;16272;48.188;9.964;2022-09-09T04:11:15;95530.59;;;15.67;65.41
29247;BME280;16272;48.188;9.964;2022-09-09T04:13:41;95525.84;;;16.62;63.46
29247;BME280;16272;48.188;9.964;2022-09-09T04:16:07;95521.31;;;16.56;63.66
29247;BME280;16272;48.188;9.964;2022-09-09T04:18:34;95527.31;;;15.87;66.52
29247;BME280;16272;48.188;9.964;2022-09-09T04:20:59;95528.69;;;16.26;64.66
29247;BME280;16272;48.188;9.964;2022-09-09T04:23:26;95533.13;;;16.68;64.15
29247;BME280;16272;48.188;9.964;2022-09-09T04:25:55;95534.03;;;15.76;66.52
29247;BME280;16272;48.188;9.964;2022-09-09T04:28:22;95534.56;;;15.35;68.26
29247;BME280;16272;48.188;9.964;2022-09-09T04:30:48;95537.03;;;15.73;66.48
29247;BME280;16272;48.188;9.964;2022-09-09T04:33:14;95545.47;;;14.88;69.36
29247;BME280;16272;48.188;9.964;2022-09-09T04:35:47;95548.78;;;15.93;66.67
29247;BME280;16272;48.188;9.964;2022-09-09T04:38:14;95541.22;;;16.47;65.44
29247;BME280;16272;48.188;9.964;2022-09-09T04:40:43;95542.75;;;16.56;64.79
29247;BME280;16272;48.188;9.964;2022-09-09T04:43:08;95542.84;;;16.20;65.76
29247;BME280;16272;48.188;9.964;2022-09-09T04:45:34;95536.44;;;16.70;63.78
29247;BME280;16272;48.188;9.964;2022-09-09T04:48:00;95537.38;;;17.19;62.69
29247;BME280;16272;48.188;9.964;2022-09-09T04:50:25;95541.69;;;17.14;62.65
29247;BME280;16272;48.188;9.964;2022-09-09T04:52:51;95551.19;;;17.71;60.89
29247;BME280;16272;48.188;9.964;2022-09-09T04:55:16;95547.63;;;17.57;61.04
29247;BME280;16272;48.188;9.964;2022-09-09T04:57:41;95546.78;;;17.08;62.77
29247;BME280;16272;48.188;9.964;2022-09-09T05:00:07;95556.41;;;16.89;63.25
29247;BME280;16272;48.188;9.964;2022-09-09T05:02:37;95548.97;;;16.63;65.17
29247;BME280;16272;48.188;9.964;2022-09-09T05:05:03;95554.38;;;16.98;63.74
29247;BME280;16272;48.188;9.964;2022-09-09T05:07:28;95552.28;;;17.29;62.82
29247;BME280;16272;48.188;9.964;2022-09-09T05:09:54;95554.63;;;16.75;64.56
29247;BME280;16272;48.188;9.964;2022-09-09T05:12:19;95562.34;;;16.85;65.13
29247;BME280;16272;48.188;9.964;2022-09-09T05:14:44;95552.75;;;16.97;64.65
29247;BME280;16272;48.188;9.964;2022-09-09T05:17:10;95562.44;;;17.40;63.68
29247;BME280;16272;48.188;9.964;2022-09-09T05:19:36;95568.63;;;16.70;65.39
29247;BME280;16272;48.188;9.964;2022-09-09T05:22:02;95564.91;;;17.00;64.09
29247;BME280;16272;48.188;9.964;2022-09-09T05:24:28;95566.22;;;16.04;67.56
29247;BME280;16272;48.188;9.964;2022-09-09T05:26:53;95563.16;;;16.07;67.23
29247;BME280;16272;48.188;9.964;2022-09-09T05:29:18;95567.16;;;16.18;68.32
29247;BME280;16272;48.188;9.964;2022-09-09T05:31:45;95562.91;;;16.52;67.48
29247;BME280;16272;48.188;9.964;2022-09-09T05:34:12;95564.25;;;17.33;64.61
29247;BME280;16272;48.188;9.964;2022-09-09T05:36:37;95564.34;;;16.76;66.20
29247;BME280;16272;48.188;9.964;2022-09-09T05:39:03;95559.72;;;16.92;66.81
29247;BME280;16272;48.188;9.964;2022-09-09T05:41:28;95556.06;;;17.48;64.65
29247;BME280;16272;48.188;9.964;2022-09-09T05:43:54;95557.50;;;15.95;69.38
29247;BME280;16272;48.188;9.964;2022-09-09T05:46:23;95552.31;;;17.35;65.48
29247;BME280;16272;48.188;9.964;2022-09-09T05:48:50;95554.69;;;17.65;64.79
29247;BME280;16272;48.188;9.964;2022-09-09T05:51:25;95558.53;;;17.42;65.45
29247;BME280;16272;48.188;9.964;2022-09-09T05:53:51;95560.47;;;17.14;66.42
29247;BME280;16272;48.188;9.964;2022-09-09T05:56:22;95561.34;;;16.86;67.59
29247;BME280;16272;48.188;9.964;2022-09-09T05:58:49;95554.41;;;17.05;67.17
29247;BME280;16272;48.188;9.964;2022-09-09T06:01:25;95543.03;;;18.06;64.24
29247;BME280;16272;48.188;9.964;2022-09-09T06:04:07;95544.56;;;17.12;67.63
29247;BME280;16272;48.188;9.964;2022-09-09T06:06:35;95553.38;;;18.23;64.78
29247;BME280;16272;48.188;9.964;2022-09-09T06:09:02;95552.34;;;18.44;63.75
29247;BME280;16272;48.188;9.964;2022-09-09T06:11:30;95551.31;;;18.71;63.20
29247;BME280;16272;48.188;9.964;2022-09-09T06:13:59;95554.63;;;18.67;63.36
29247;BME280;16272;48.188;9.964;2022-09-09T06:16:26;95560.00;;;18.53;64.11
29247;BME280;16272;48.188;9.964;2022-09-09T06:18:56;95564.13;;;18.09;65.55
29247;BME280;16272;48.188;9.964;2022-09-09T06:21:25;95554.78;;;17.37;68.20
29247;BME280;16272;48.188;9.964;2022-09-09T06:23:51;95556.25;;;18.01;66.07
29247;BME280;16272;48.188;9.964;2022-09-09T06:26:22;95554.84;;;17.08;68.95
29247;BME280;16272;48.188;9.964;2022-09-09T06:28:51;95551.63;;;17.81;66.30
29247;BME280;16272;48.188;9.964;2022-09-09T06:31:19;95552.41;;;17.69;68.22
29247;BME280;16272;48.188;9.964;2022-09-09T06:33:53;95545.19;;;17.14;69.61
29247;BME280;16272;48.188;9.964;2022-09-09T06:36:22;95549.94;;;17.74;67.86
29247;BME280;16272;48.188;9.964;2022-09-09T06:38:48;95558.47;;;17.84;67.39
29247;BME280;16272;48.188;9.964;2022-09-09T06:41:16;95557.94;;;18.15;65.74
29247;BME280;16272;48.188;9.964;2022-09-09T06:43:43;95550.59;;;19.23;63.67
29247;BME280;16272;48.188;9.964;2022-09-09T06:46:11;95546.69;;;19.19;64.13
29247;BME280;16272;48.188;9.964;2022-09-09T06:48:45;95546.91;;;19.76;62.23
29247;BME280;16272;48.188;9.964;2022-09-09T06:51:18;95542.22;;;19.96;61.33
29247;BME280;16272;48.188;9.964;2022-09-09T06:53:46;95553.63;;;20.30;61.64
29247;BME280;16272;48.188;9.964;2022-09-09T06:56:34;95550.59;;;20.45;61.25
29247;BME280;16272;48.188;9.964;2022-09-09T06:59:05;95550.00;;;20.11;62.52
29247;BME280;16272;48.188;9.964;2022-09-09T07:01:39;95549.84;;;20.31;60.69
29247;BME280;16272;48.188;9.964;2022-09-09T07:04:07;95551.47;;;19.10;65.82
29247;BME280;16272;48.188;9.964;2022-09-09T07:06:36;95562.16;;;20.52;61.33
29247;BME280;16272;48.188;9.964;2022-09-09T07:09:09;95564.09;;;20.70;60.25
29247;BME280;16272;48.188;9.964;2022-09-09T07:11:56;95564.63;;;19.90;62.27
29247;BME280;16272;48.188;9.964;2022-09-09T07:14:24;95565.16;;;19.67;64.39
29247;BME280;16272;48.188;9.964;2022-09-09T07:16:50;95571.66;;;19.98;63.96
29247;BME280;16272;48.188;9.964;2022-09-09T07:19:22;95570.13;;;19.63;64.72
29247;BME280;16272;48.188;9.964;2022-09-09T07:21:48;95569.31;;;20.90;61.83
29247;BME280;16272;48.188;9.964;2022-09-09T07:24:14;95577.50;;;19.88;63.27
29247;BME280;16272;48.188;9.964;2022-09-09T07:26:41;95573.81;;;20.46;62.78
29247;BME280;16272;48.188;9.964;2022-09-09T07:29:08;95589.63;;;20.11;62.78
29247;BME280;16272;48.188;9.964;2022-09-09T07:31:36;95589.19;;;20.46;62.01
29247;BME280;16272;48.188;9.964;2022-09-09T07:34:03;95593.47;;;19.24;65.04
29247;BME280;16272;48.188;9.964;2022-09-09T07:36:31;95588.75;;;20.49;62.01
29247;BME280;16272;48.188;9.964;2022-09-09T07:39:01;95593.84;;;19.35;64.48
29247;BME280;16272;48.188;9.964;2022-09-09T07:41:29;95586.47;;;20.46;63.47
29247;BME280;16272;48.188;9.964;2022-09-09T07:43:57;95590.91;;;20.90;60.99
29247;BME280;16272;48.188;9.964;2022-09-09T07:46:25;95592.06;;;20.19;63.27
29247;BME280;16272;48.188;9.964;2022-09-09T07:48:55;95585.34;;;21.29;60.49
29247;BME280;16272;48.188;9.964;2022-09-09T07:51:24;95584.47;;;21.91;58.90
29247;BME280;16272;48.188;9.964;2022-09-09T07:53:58;95584.63;;;21.59;57.87
29247;BME280;16272;48.188;9.964;2022-09-09T07:56:25;95596.53;;;20.89;61.41
29247;BME280;16272;48.188;9.964;2022-09-09T07:58:52;95590.69;;;21.17;60.73
29247;BME280;16272;48.188;9.964;2022-09-09T08:01:31;95587.81;;;22.35;58.44
29247;BME280;16272;48.188;9.964;2022-09-09T08:04:07;95594.66;;;21.33;61.71
29247;BME280;16272;48.188;9.964;2022-09-09T08:06:36;95592.78;;;20.90;60.99
29247;BME280;16272;48.188;9.964;2022-09-09T08:09:02;95596.44;;;21.02;61.93
29247;BME280;16272;48.188;9.964;2022-09-09T08:11:29;95590.31;;;20.88;60.89
29247;BME280;16272;48.188;9.964;2022-09-09T08:13:54;95591.22;;;21.81;60.22
29247;BME280;16272;48.188;9.964;2022-09-09T08:16:32;95596.59;;;21.07;61.70
29247;BME280;16272;48.188;9.964;2022-09-09T08:18:59;95591.97;;;22.49;59.19
29247;BME280;16272;48.188;9.964;2022-09-09T08:21:27;95593.44;;;22.87;57.91
29247;BME280;16272;48.188;9.964;2022-09-09T08:23:55;95591.97;;;22.49;56.65
29247;BME280;16272;48.188;9.964;2022-09-09T08:26:26;95591.00;;;22.13;57.72
29247;BME280;16272;48.188;9.964;2022-09-09T08:28:59;95602.75;;;22.07;58.03
29247;BME280;16272;48.188;9.964;2022-09-09T08:31:37;95602.69;;;22.26;59.29
29247;BME280;16272;48.188;9.964;2022-09-09T08:34:03;95606.81;;;22.58;58.32
29247;BME280;16272;48.188;9.964;2022-09-09T08:36:31;95599.47;;;22.89;57.60
29247;BME280;16272;48.188;9.964;2022-09-09T08:39:02;95601.84;;;23.21;57.65
29247;BME280;16272;48.188;9.964;2022-09-09T08:55:47;95602.53;;;22.09;56.95
29247;BME280;16272;48.188;9.964;2022-09-09T08:58:27;95602.44;;;21.97;57.60
29247;BME280;16272;48.188;9.964;2022-09-09T09:12:30;95595.72;;;21.88;55.02
29247;BME280;16272;48.188;9.964;2022-09-09T09:14:59;95596.91;;;21.92;56.77
29247;BME280;16272;48.188;9.964;2022-09-09T09:17:27;95606.50;;;22.06;56.49
29247;BME280;16272;48.188;9.964;2022-09-09T09:19:56;95601.88;;;21.58;56.22
29247;BME280;16272;48.188;9.964;2022-09-09T09:22:41;95609.03;;;22.50;55.83
29247;BME280;16272;48.188;9.964;2022-09-09T09:25:22;95607.53;;;23.84;54.31
29247;BME280;16272;48.188;9.964;2022-09-09T09:28:18;95607.31;;;23.74;52.99
29247;BME280;16272;48.188;9.964;2022-09-09T09:30:51;95605.91;;;23.59;53.65
29247;BME280;16272;48.188;9.964;2022-09-09T09:33:35;95615.13;;;22.33;55.87
29247;BME280;16272;48.188;9.964;2022-09-09T09:36:03;95612.44;;;22.27;52.89
29247;BME280;16272;48.188;9.964;2022-09-09T09:38:32;95610.06;;;23.03;52.05
29247;BME280;16272;48.188;9.964;2022-09-09T09:40:59;95607.13;;;23.40;53.82
29247;BME280;16272;48.188;9.964;2022-09-09T09:43:32;95620.94;;;22.61;54.02
29247;BME280;16272;48.188;9.964;2022-09-09T09:45:58;95613.69;;;22.85;53.31
29247;BME280;16272;48.188;9.964;2022-09-09T09:48:25;95598.66;;;24.29;52.73
29247;BME280;16272;48.188;9.964;2022-09-09T09:50:54;95613.69;;;23.91;51.80
29247;BME280;16272;48.188;9.964;2022-09-09T09:53:31;95606.13;;;23.93;53.75
29247;BME280;16272;48.188;9.964;2022-09-09T09:56:03;95601.50;;;24.06;52.46
29247;BME280;16272;48.188;9.964;2022-09-09T09:58:37;95607.94;;;23.05;53.17
29247;BME280;16272;48.188;9.964;2022-09-09T10:01:28;95604.34;;;23.75;53.93
29247;BME280;16272;48.188;9.964;2022-09-09T10:03:59;95602.84;;;23.67;53.34
29247;BME280;16272;48.188;9.964;2022-09-09T10:06:35;95599.69;;;23.00;51.93
29247;BME280;16272;48.188;9.964;2022-09-09T10:09:03;95606.91;;;21.91;55.44
29247;BME280;16272;48.188;9.964;2022-09-09T10:16:41;95597.59;;;23.37;55.99
29247;BME280;16272;48.188;9.964;2022-09-09T10:19:44;95599.03;;;22.50;54.64
29247;BME280;16272;48.188;9.964;2022-09-09T10:22:26;95588.00;;;22.64;55.92
29247;BME280;16272;48.188;9.964;2022-09-09T10:33:51;95572.97;;;23.15;52.09
29247;BME280;16272;48.188;9.964;2022-09-09T10:36:25;95576.97;;;23.01;55.15
29247;BME280;16272;48.188;9.964;2022-09-09T10:44:15;95566.34;;;24.56;50.34
29247;BME280;16272;48.188;9.964;2022-09-09T10:47:05;95577.59;;;24.19;52.08
29247;BME280;16272;48.188;9.964;2022-09-09T10:55:24;95544.22;;;24.53;48.93
29247;BME280;16272;48.188;9.964;2022-09-09T10:57:53;95557.13;;;24.91;49.48
29247;BME280;16272;48.188;9.964;2022-09-09T11:00:25;95542.25;;;25.77;50.13
29247;BME280;16272;48.188;9.964;2022-09-09T11:03:04;95547.47;;;24.50;48.75
29247;BME280;16272;48.188;9.964;2022-09-09T11:05:58;95543.66;;;25.19;50.16
29247;BME280;16272;48.188;9.964;2022-09-09T11:08:26;95541.63;;;24.92;48.67
29247;BME280;16272;48.188;9.964;2022-09-09T11:21:55;95529.50;;;25.34;44.78
29247;BME280;16272;48.188;9.964;2022-09-09T11:24:31;95541.88;;;24.90;48.70
29247;BME280;16272;48.188;9.964;2022-09-09T11:35:38;95544.66;;;24.95;46.83
29247;BME280;16272;48.188;9.964;2022-09-09T11:41:07;95535.63;;;24.90;45.83
29247;BME280;16272;48.188;9.964;2022-09-09T11:43:42;95533.94;;;23.92;44.20
29247;BME280;16272;48.188;9.964;2022-09-09T11:46:09;95526.97;;;23.96;45.46
29247;BME280;16272;48.188;9.964;2022-09-09T11:51:06;95535.91;;;24.71;46.10
29247;BME280;16272;48.188;9.964;2022-09-09T11:53:34;95530.75;;;24.92;44.34
29247;BME280;16272;48.188;9.964;2022-09-09T11:58:27;95524.28;;;24.93;43.69
29247;BME280;16272;48.188;9.964;2022-09-09T12:00:57;95523.34;;;24.87;43.49
29247;BME280;16272;48.188;9.964;2022-09-09T12:03:42;95523.47;;;24.13;49.13
29247;BME280;16272;48.188;9.964;2022-09-09T12:06:25;95524.03;;;23.57;47.91
29247;BME280;16272;48.188;9.964;2022-09-09T12:08:56;95524.44;;;24.07;47.69
29247;BME280;16272;48.188;9.964;2022-09-09T12:11:29;95530.97;;;24.22;47.43
29247;BME280;16272;48.188;9.964;2022-09-09T12:13:57;95531.97;;;23.76;49.13
29247;BME280;16272;48.188;9.964;2022-09-09T12:16:33;95534.69;;;23.76;49.13
29247;BME280;16272;48.188;9.964;2022-09-09T12:19:16;95537.63;;;23.22;48.49
29247;BME280;16272;48.188;9.964;2022-09-09T12:22:07;95539.63;;;23.38;47.32
29247;BME280;16272;48.188;9.964;2022-09-09T12:24:51;95534.81;;;23.81;48.64
29247;BME280;16272;48.188;9.964;2022-09-09T12:27:42;95548.94;;;22.95;51.38
29247;BME280;16272;48.188;9.964;2022-09-09T12:30:12;95542.13;;;22.92;50.71
29247;BME280;16272;48.188;9.964;2022-09-09T12:32:39;95545.50;;;22.52;50.68
29247;BME280;16272;48.188;9.964;2022-09-09T12:37:51;95553.28;;;23.43;49.77
29247;BME280;16272;48.188;9.964;2022-09-09T12:40:25;95544.25;;;23.14;49.51
29247;BME280;16272;48.188;9.964;2022-09-09T12:42:51;95550.59;;;22.96;49.71
29247;BME280;16272;48.188;9.964;2022-09-09T12:45:22;95554.94;;;22.97;49.77
29247;BME280;16272;48.188;9.964;2022-09-09T12:48:09;95561.25;;;22.13;50.93
29247;BME280;16272;48.188;9.964;2022-09-09T12:50:46;95565.88;;;22.90;50.88
29247;BME280;16272;48.188;9.964;2022-09-09T12:53:22;95549.84;;;22.11;54.62
29247;BME280;16272;48.188;9.964;2022-09-09T12:56:37;95534.25;;;22.91;51.01
29247;BME280;16272;48.188;9.964;2022-09-09T12:58:38;95531.97;;;23.88;53.52
29247;BME280;16272;48.188;9.964;2022-09-09T13:01:05;95532.34;;;24.71;50.06
29247;BME280;16272;48.188;9.964;2022-09-09T13:03:42;95519.16;;;24.29;47.87
29247;BME280;16272;48.188;9.964;2022-09-09T13:06:16;95515.81;;;23.81;47.53
29247;BME280;16272;48.188;9.964;2022-09-09T13:08:43;95497.06;;;25.71;47.42
29247;BME280;16272;48.188;9.964;2022-09-09T13:11:22;95489.94;;;24.87;51.70
29247;BME280;16272;48.188;9.964;2022-09-09T13:13:54;95499.34;;;23.06;49.46
29247;BME280;16272;48.188;9.964;2022-09-09T13:18:49;95484.59;;;24.41;48.70
29247;BME280;16272;48.188;9.964;2022-09-09T13:21:15;95489.47;;;25.29;47.24
29247;BME280;16272;48.188;9.964;2022-09-09T13:23:40;95481.72;;;24.82;47.50
29247;BME280;16272;48.188;9.964;2022-09-09T13:26:23;95471.53;;;24.38;45.66
29247;BME280;16272;48.188;9.964;2022-09-09T13:28:49;95479.22;;;24.97;46.25
29247;BME280;16272;48.188;9.964;2022-09-09T13:31:27;95478.03;;;25.27;46.86
29247;BME280;16272;48.188;9.964;2022-09-09T13:33:53;95473.47;;;24.09;48.50
29247;BME280;16272;48.188;9.964;2022-09-09T13:36:31;95472.56;;;23.86;46.09
29247;BME280;16272;48.188;9.964;2022-09-09T13:38:59;95464.56;;;24.98;44.70
29247;BME280;16272;48.188;9.964;2022-09-09T13:41:44;95452.59;;;25.16;43.03
29247;BME280;16272;48.188;9.964;2022-09-09T13:44:42;95459.31;;;24.91;45.56
29247;BME280;16272;48.188;9.964;2022-09-09T13:47:21;95460.41;;;24.39;41.88
29247;BME280;16272;48.188;9.964;2022-09-09T13:49:51;95454.63;;;23.85;42.84
29247;BME280;16272;48.188;9.964;2022-09-09T13:52:18;95451.44;;;24.05;42.48
29247;BME280;16272;48.188;9.964;2022-09-09T13:54:50;95448.09;;;24.83;41.80
29247;BME280;16272;48.188;9.964;2022-09-09T13:57:24;95442.72;;;24.88;43.26
29247;BME280;16272;48.188;9.964;2022-09-09T13:59:52;95441.63;;;25.28;43.38
29247;BME280;16272;48.188;9.964;2022-09-09T14:02:18;95447.75;;;24.28;42.46
29247;BME280;16272;48.188;9.964;2022-09-09T14:04:44;95438.72;;;23.77;41.10
29247;BME280;16272;48.188;9.964;2022-09-09T14:07:17;95441.09;;;23.44;43.05
29247;BME280;16272;48.188;9.964;2022-09-09T14:09:43;95441.06;;;24.87;43.02
29247;BME280;16272;48.188;9.964;2022-09-09T14:12:12;95445.03;;;24.28;40.48
29247;BME280;16272;48.188;9.964;2022-09-09T14:14:38;95444.69;;;24.75;42.38
29247;BME280;16272;48.188;9.964;2022-09-09T14:17:04;95428.28;;;23.97;42.16
29247;BME280;16272;48.188;9.964;2022-09-09T14:19:30;95438.06;;;25.49;40.28
29247;BME280;16272;48.188;9.964;2022-09-09T14:22:04;95427.78;;;24.68;40.16
29247;BME280;16272;48.188;9.964;2022-09-09T14:24:30;95439.13;;;23.97;41.84
29247;BME280;16272;48.188;9.964;2022-09-09T14:26:55;95442.16;;;24.18;41.36
29247;BME280;16272;48.188;9.964;2022-09-09T14:29:21;95442.97;;;23.15;41.63
29247;BME280;16272;48.188;9.964;2022-09-09T14:31:46;95438.03;;;23.12;42.19
29247;BME280;16272;48.188;9.964;2022-09-09T14:34:12;95447.78;;;23.82;43.71
29247;BME280;16272;48.188;9.964;2022-09-09T14:36:39;95439.91;;;23.52;43.67
29247;BME280;16272;48.188;9.964;2022-09-09T14:39:05;95438.72;;;23.48;43.17
29247;BME280;16272;48.188;9.964;2022-09-09T14:41:31;95447.72;;;23.65;43.70
29247;BME280;16272;48.188;9.964;2022-09-09T14:43:57;95451.63;;;23.70;42.90
29247;BME280;16272;48.188;9.964;2022-09-09T14:46:33;95452.69;;;23.68;42.32
29247;BME280;16272;48.188;9.964;2022-09-09T14:48:58;95452.69;;;24.31;40.55
29247;BME280;16272;48.188;9.964;2022-09-09T14:51:26;95447.34;;;23.74;41.19
29247;BME280;16272;48.188;9.964;2022-09-09T14:53:56;95455.91;;;24.11;42.54
29247;BME280;16272;48.188;9.964;2022-09-09T14:56:25;95449.66;;;24.11;43.19
29247;BME280;16272;48.188;9.964;2022-09-09T14:58:53;95456.47;;;23.96;42.44
29247;BME280;16272;48.188;9.964;2022-09-09T15:01:19;95457.22;;;23.51;42.36
29247;BME280;16272;48.188;9.964;2022-09-09T15:04:02;95464.34;;;23.69;43.05
29247;BME280;16272;48.188;9.964;2022-09-09T15:06:31;95468.19;;;23.04;43.53
29247;BME280;16272;48.188;9.964;2022-09-09T15:08:58;95466.59;;;24.35;42.37
29247;BME280;16272;48.188;9.964;2022-09-09T15:11:30;95452.78;;;24.36;41.48
29247;BME280;16272;48.188;9.964;2022-09-09T15:13:57;95458.69;;;23.99;43.46
29247;BME280;16272;48.188;9.964;2022-09-09T15:16:30;95444.00;;;25.02;43.29
29247;BME280;16272;48.188;9.964;2022-09-09T15:18:58;95455.91;;;24.62;42.57
29247;BME280;16272;48.188;9.964;2022-09-09T15:21:27;95455.44;;;23.04;42.74
29247;BME280;16272;48.188;9.964;2022-09-09T15:23:53;95456.25;;;23.28;44.16